createdAt,value
2018-12-22T19:46:52.058Z,99.90
2018-12-22T19:49:19.741Z,99.90
2018-12-22T19:51:47.485Z,99.90
2018-12-22T19:54:15.253Z,99.70
2018-12-22T19:56:42.915Z,99.30
2018-12-22T19:59:10.457Z,98.90
2018-12-22T20:01:38.165Z,98.90
2018-12-22T20:04:05.877Z,98.80
2018-12-22T20:06:33.676Z,99.10
2018-12-22T20:09:01.449Z,99.00
2018-12-22T20:11:29.428Z,98.90
2018-12-22T20:13:57.174Z,99.00
2018-12-22T20:16:24.802Z,99.20
2018-12-22T20:18:52.409Z,99.10
2018-12-22T20:21:20.158Z,98.90
2018-12-22T20:23:47.846Z,98.60
2018-12-22T20:26:15.658Z,99.10
2018-12-22T20:28:43.294Z,99.10
2018-12-22T20:31:10.995Z,99.00
2018-12-22T20:33:38.685Z,99.30
2018-12-22T20:36:06.485Z,99.20
2018-12-22T20:38:34.162Z,99.10
2018-12-22T20:41:02.706Z,99.10
2018-12-22T20:43:30.370Z,99.30
2018-12-22T20:45:58.025Z,99.30
2018-12-22T20:48:25.818Z,99.20
2018-12-22T20:50:53.505Z,99.20
2018-12-22T20:53:21.342Z,99.40
2018-12-22T20:55:49.137Z,99.30
2018-12-22T20:58:16.897Z,99.70
2018-12-22T21:00:44.649Z,99.30
2018-12-22T21:03:12.414Z,99.10
2018-12-22T21:05:46.494Z,99.20
2018-12-22T21:08:14.104Z,99.40
2018-12-22T21:10:42.044Z,99.60
2018-12-22T21:13:09.889Z,99.50
2018-12-22T21:15:37.931Z,99.40
2018-12-22T21:18:05.845Z,99.50
2018-12-22T21:20:33.586Z,99.50
2018-12-22T21:23:01.298Z,99.80
2018-12-22T21:25:29.048Z,99.90
2018-12-22T21:27:56.709Z,99.90
2018-12-22T21:30:24.433Z,99.90
2018-12-22T21:32:52.365Z,99.90
2018-12-22T21:35:20.065Z,99.90
2018-12-22T21:37:48.105Z,99.90
2018-12-22T21:40:15.867Z,99.90
2018-12-22T21:42:43.634Z,99.90
2018-12-22T21:45:11.353Z,99.90
2018-12-22T21:47:39.003Z,99.90
2018-12-22T21:50:07.062Z,99.90
2018-12-22T21:52:35.409Z,99.90
2018-12-22T21:55:03.476Z,99.90
2018-12-22T21:57:31.166Z,99.90
2018-12-22T21:59:58.846Z,99.90
2018-12-22T22:02:26.552Z,99.90
2018-12-22T22:04:54.261Z,99.90
2018-12-22T22:07:22.122Z,99.90
2018-12-22T22:09:49.985Z,99.90
2018-12-22T22:12:17.794Z,99.90
2018-12-22T22:14:45.711Z,99.90
2018-12-22T22:17:13.359Z,99.90
2018-12-22T22:19:41.133Z,99.90
2018-12-22T22:22:08.951Z,99.90
2018-12-22T22:24:36.656Z,99.90
2018-12-22T22:27:04.282Z,99.90
2018-12-22T22:29:32.009Z,99.90
2018-12-22T22:32:00.449Z,99.90
2018-12-22T22:34:28.162Z,99.90
2018-12-22T22:36:55.825Z,99.90
2018-12-22T22:39:23.462Z,99.90
2018-12-22T22:41:51.122Z,99.90
2018-12-22T22:44:19.090Z,99.90
2018-12-22T22:46:46.806Z,99.90
2018-12-22T22:49:14.438Z,99.90
2018-12-22T22:51:42.161Z,99.70
2018-12-22T22:54:09.842Z,99.90
2018-12-22T22:56:37.525Z,99.30
2018-12-22T22:59:05.234Z,99.10
2018-12-22T23:01:32.934Z,98.60
2018-12-22T23:04:00.719Z,98.10
2018-12-22T23:06:28.578Z,98.10
2018-12-22T23:08:56.342Z,97.90
2018-12-22T23:11:24.225Z,97.50
2018-12-22T23:13:51.882Z,97.40
2018-12-22T23:16:20.518Z,97.40
2018-12-22T23:18:48.259Z,97.70
2018-12-22T23:21:16.037Z,97.60
2018-12-22T23:23:43.778Z,97.70
2018-12-22T23:26:11.542Z,98.00
2018-12-22T23:28:39.380Z,98.20
2018-12-22T23:31:07.142Z,98.20
2018-12-22T23:33:34.885Z,98.50
2018-12-22T23:36:02.621Z,98.70
2018-12-22T23:38:30.362Z,98.70
2018-12-22T23:40:58.137Z,98.90
2018-12-22T23:43:25.794Z,99.10
2018-12-22T23:45:53.506Z,99.10
2018-12-22T23:48:21.069Z,99.20
2018-12-22T23:50:48.794Z,99.10
2018-12-22T23:53:16.641Z,99.10
2018-12-22T23:55:44.321Z,99.30
2018-12-22T23:58:12.089Z,99.50
